Acton, MT

12:54 AM MDT on September 21, 2014 (GMT -0600)
Ironwood MT | Change Station
CLOSE
Current Station
Personal Weather Station
Location: Billings, MT
Elevation: 3504 ft
Nearby Weather Stations

Elev 3504 ft 45.82 °N, 108.66 °W | Updated 47 minutes ago

Clear
Clear
50.9 °F
Feels Like 50.9 °F
N
2.3
Wind Variable Wind from NNE
Gusts 0.0 mph

Today
High -- | Low -- °F
--% Chance of Precip.
Yesterday
High -- | Low -- °F
Precip. -- in
7:00 AM 7:14 PM
Waning Crescent, 8% visible
Pressure 30.23 in
Visibility 10.0 miles
Clouds Clear
Dew Point 42 °F
Humidity 70%
Rainfall 0.00 in
Snow Depth Not available.
UV 0 out of 12
Pollen 5.30 out of 12
Air Quality Not available.
Flu Activity Not available.
METAR KBIL 210553Z 01004KT 10SM CLR 14/06 A3029 RMK AO2 SLP237 T01440056 10228 20139 51010

More Conditions Fewer Conditions

Pressure 30.23 in
Visibility 10.0 miles
Clouds Clear
Dew Point 42 °F
Humidity 70%
Rainfall 0.00 in
Snow Depth Not available.
UV 0 out of 12
Pollen 5.30 out of 12
Air Quality Not available.
Flu Activity Not available.
METAR KBIL 210553Z 01004KT 10SM CLR 14/06 A3029 RMK AO2 SLP237 T01440056 10228 20139 51010

More Conditions Fewer Conditions

10-Day Weather Forecast

Almanac

Astronomy

Sep. 21, 2014 Rise Set
Actual Time 7:00 AM MDT 7:14 PM MDT
Civil Twilight 6:30 AM MDT 7:44 PM MDT
Nautical Twilight 5:55 AM MDT 8:19 PM MDT
Astronomical Twilight 5:19 AM MDT 8:55 PM MDT
Moon 4:31 AM MDT 5:56 PM MDT
Length of Visible Light 13h 13m
Length of Day
12h 13m
Tomorrow will be 3m 12s shorter.
Waning Crescent, 8% of the Moon is Illuminated
Today
Waning Crescent
Sep 24
New
Oct 1
First Quarter
Oct 8
Full
Oct 15
Last Quarter

Today's Extremes

State Highs State Lows

Community

WunderPhotos

Upload Photos

1,755,098 photos uploaded!

Nearby

Snow Depth

Station Depth Elevation
Bloody Dick 0 in 7550 ft
Black Pine 1 in 7210 ft
Divide 0 in 7800 ft
Garver Creek 1 in 4250 ft
Lakeview Ridge 0 in 7400 ft

Earthquake Activity

City Distance Mag. Time & Date
No recent earthquake activity has been reported nearby.
Minimum magnitude displayed is 2.5.

Coastal Water Temperatures

Place Temperature
No Stations Reporting

Nearby Weather Stations